createdAt,value
2023-05-04T00:01:35.948Z,101171.97
2023-05-04T00:05:38.896Z,101160.47
2023-05-04T00:09:41.981Z,101153.69
2023-05-04T00:13:44.889Z,101153.13
2023-05-04T00:17:49.211Z,101155.81
2023-05-04T00:21:52.171Z,101152.16
2023-05-04T00:25:55.265Z,101140.19
2023-05-04T00:29:58.211Z,101143.13
2023-05-04T00:34:02.594Z,101137.75
2023-05-04T00:38:06.381Z,101118.00
2023-05-04T00:42:09.282Z,101120.72
2023-05-04T00:46:12.405Z,101121.09
2023-05-04T00:50:17.129Z,101117.19
2023-05-04T00:54:20.997Z,101125.03
2023-05-04T00:58:25.330Z,101120.81
2023-05-04T01:02:28.479Z,101115.16
2023-05-04T01:06:36.335Z,101116.19
2023-05-04T01:10:42.979Z,101111.28
2023-05-04T01:14:47.899Z,101095.88
2023-05-04T01:18:51.048Z,101100.47
2023-05-04T01:22:56.276Z,101100.66
2023-05-04T01:27:04.150Z,101094.91
2023-05-04T01:31:09.820Z,101093.56
2023-05-04T01:35:13.632Z,101089.81
2023-05-04T01:39:17.934Z,101087.78
2023-05-04T01:43:20.882Z,101085.75
2023-05-04T01:47:24.007Z,101080.97
2023-05-04T01:51:27.398Z,101088.47
2023-05-04T01:55:32.210Z,101091.38
2023-05-04T01:59:35.154Z,101098.41
2023-05-04T02:03:38.181Z,101101.22
2023-05-04T02:07:41.566Z,101083.88
2023-05-04T02:11:45.973Z,101094.78
2023-05-04T02:15:49.072Z,101087.53
2023-05-04T02:19:53.204Z,101082.09
2023-05-04T02:23:56.149Z,101085.69
2023-05-04T02:28:02.127Z,101083.59
2023-05-04T02:32:05.308Z,101084.56
2023-05-04T02:36:09.015Z,101078.50
2023-05-04T02:40:12.863Z,101087.75
2023-05-04T02:44:17.148Z,101081.31
2023-05-04T02:48:20.179Z,101076.94
2023-05-04T02:52:23.037Z,101072.84
2023-05-04T02:56:26.364Z,101073.47
2023-05-04T03:00:30.710Z,101071.56
2023-05-04T03:04:33.684Z,101065.66
2023-05-04T03:08:36.628Z,101058.59
2023-05-04T03:12:39.518Z,101059.44
2023-05-04T03:16:43.920Z,101047.78
2023-05-04T03:20:47.047Z,101041.97
2023-05-04T03:24:53.830Z,101045.44
2023-05-04T03:28:56.947Z,101046.84
2023-05-04T03:33:01.481Z,101048.44
2023-05-04T03:37:05.193Z,101041.16
2023-05-04T03:41:08.876Z,101034.31
2023-05-04T03:45:12.222Z,101041.81
2023-05-04T03:49:16.577Z,101030.19
2023-05-04T03:53:20.104Z,101028.91
2023-05-04T03:57:24.353Z,101030.25
2023-05-04T04:01:28.305Z,101035.69
2023-05-04T04:05:32.788Z,101035.63
2023-05-04T04:09:35.767Z,101046.06
2023-05-04T04:13:39.529Z,101040.50
2023-05-04T04:17:42.417Z,101041.25
2023-05-04T04:21:46.807Z,101049.09
2023-05-04T04:25:49.972Z,101044.69
2023-05-04T04:29:53.312Z,101040.94
2023-05-04T04:33:57.415Z,101039.84
2023-05-04T04:38:03.791Z,101038.41
2023-05-04T04:42:07.329Z,101034.31
2023-05-04T04:46:10.691Z,101031.19
2023-05-04T04:50:13.716Z,101027.78
2023-05-04T04:54:17.979Z,101027.31
2023-05-04T04:58:21.103Z,101019.41
2023-05-04T05:02:24.211Z,101020.63
2023-05-04T05:06:27.231Z,101015.34
2023-05-04T05:10:31.589Z,101018.91
2023-05-04T05:14:35.244Z,101020.66
2023-05-04T05:18:38.340Z,101012.84
2023-05-04T05:22:43.323Z,101011.69
2023-05-04T05:26:47.700Z,101011.78
2023-05-04T05:30:52.119Z,101021.00
2023-05-04T05:34:55.259Z,101009.34
2023-05-04T05:38:58.142Z,101014.13
2023-05-04T05:43:02.489Z,101015.28
2023-05-04T05:47:05.899Z,101026.81
2023-05-04T05:51:09.354Z,101012.63
2023-05-04T05:55:13.091Z,101030.81
2023-05-04T05:59:17.421Z,101020.91
2023-05-04T06:03:20.477Z,101013.41
2023-05-04T06:07:23.794Z,101018.56
2023-05-04T06:11:26.948Z,101016.91
2023-05-04T06:15:31.450Z,101020.72
2023-05-04T06:19:35.455Z,101015.91
2023-05-04T06:23:38.451Z,101007.31
2023-05-04T06:27:41.396Z,101009.47
2023-05-04T06:31:47.503Z,101006.91
2023-05-04T06:35:51.978Z,100999.50
2023-05-04T06:39:55.292Z,100993.59
2023-05-04T06:43:59.943Z,100986.81
2023-05-04T06:48:04.400Z,100982.34
2023-05-04T06:52:07.433Z,100983.53
2023-05-04T06:56:10.435Z,100981.41
2023-05-04T07:00:14.122Z,100973.88
2023-05-04T07:04:23.160Z,100985.19
2023-05-04T07:08:26.235Z,100975.25
2023-05-04T07:12:29.312Z,100989.38
2023-05-04T07:16:33.189Z,100978.03
2023-05-04T07:20:37.804Z,100986.22
2023-05-04T07:24:40.669Z,100972.56
2023-05-04T07:28:44.310Z,100963.78
2023-05-04T07:32:47.357Z,100965.56
2023-05-04T07:36:51.877Z,100968.38
2023-05-04T07:40:55.423Z,100971.41
2023-05-04T07:44:58.718Z,100961.91
2023-05-04T07:49:01.772Z,100953.00
2023-05-04T07:53:06.249Z,100955.47
2023-05-04T07:57:09.439Z,100954.63
2023-05-04T08:01:12.682Z,100947.56
2023-05-04T08:05:15.811Z,100943.31
2023-05-04T08:09:20.241Z,100936.22
2023-05-04T08:13:23.227Z,100946.88
2023-05-04T08:17:26.434Z,100947.88
2023-05-04T08:21:29.406Z,100933.47
2023-05-04T08:25:33.785Z,100946.22
2023-05-04T08:29:37.765Z,100934.19
2023-05-04T08:33:41.056Z,100942.75
2023-05-04T08:37:44.516Z,100933.53
2023-05-04T08:41:48.996Z,100931.00
2023-05-04T08:45:52.293Z,100936.09
2023-05-04T08:49:56.436Z,100929.84
2023-05-04T08:53:59.785Z,100924.84
2023-05-04T08:58:06.419Z,100928.94
2023-05-04T09:02:11.484Z,100922.00
2023-05-04T09:06:14.813Z,100917.28
2023-05-04T09:10:18.160Z,100907.44
2023-05-04T09:14:23.054Z,100899.84
2023-05-04T09:18:36.921Z,100901.97
2023-05-04T09:22:39.930Z,100890.59
2023-05-04T09:26:43.128Z,100898.25
2023-05-04T09:30:48.438Z,100896.25
2023-05-04T09:34:52.011Z,100891.88
2023-05-04T09:38:55.418Z,100887.34
2023-05-04T09:42:58.673Z,100881.66
2023-05-04T09:47:03.103Z,100881.03
2023-05-04T09:51:07.556Z,100876.59
2023-05-04T09:55:12.544Z,100863.78
2023-05-04T09:59:16.815Z,100878.41
2023-05-04T10:03:22.069Z,100876.19
2023-05-04T10:07:26.211Z,100866.81
2023-05-04T10:11:29.829Z,100859.59
2023-05-04T10:15:33.231Z,100863.59
2023-05-04T10:19:49.270Z,100857.72
2023-05-04T10:24:06.139Z,100845.19
2023-05-04T10:28:16.714Z,100835.16
2023-05-04T10:32:20.902Z,100828.16
2023-05-04T10:36:25.327Z,100832.63
2023-05-04T10:40:38.102Z,100832.81
2023-05-04T10:44:50.207Z,100830.97
2023-05-04T10:48:53.393Z,100817.53
2023-05-04T10:52:59.549Z,100811.31
2023-05-04T10:57:05.022Z,100792.53
2023-05-04T11:01:12.673Z,100784.38
2023-05-04T11:05:18.573Z,100771.31
2023-05-04T11:09:22.941Z,100767.59
2023-05-04T11:13:26.994Z,100758.63
2023-05-04T11:17:30.216Z,100754.72
2023-05-04T11:21:33.202Z,100754.25
2023-05-04T11:25:38.097Z,100733.16
2023-05-04T11:29:41.441Z,100725.16
2023-05-04T11:33:48.365Z,100724.19
2023-05-04T11:37:51.740Z,100732.53
2023-05-04T11:41:56.162Z,100723.66
2023-05-04T11:46:01.117Z,100715.81
2023-05-04T11:50:05.036Z,100707.31
2023-05-04T11:54:08.207Z,100706.41
2023-05-04T11:58:12.874Z,100697.25
2023-05-04T12:02:16.525Z,100704.09
2023-05-04T12:06:19.883Z,100703.47
2023-05-04T12:10:26.306Z,100698.91
2023-05-04T12:14:30.739Z,100695.28
2023-05-04T12:18:33.599Z,100701.09
2023-05-04T12:22:36.902Z,100700.47
2023-05-04T12:26:39.748Z,100697.09
2023-05-04T12:30:44.065Z,100685.75
2023-05-04T12:34:47.300Z,100679.53
2023-05-04T12:38:50.350Z,100662.81
2023-05-04T12:42:53.321Z,100661.38
2023-05-04T12:46:57.898Z,100665.59
2023-05-04T12:51:01.343Z,100659.03
2023-05-04T12:55:04.943Z,100657.03
2023-05-04T12:59:07.992Z,100645.97
2023-05-04T13:03:13.537Z,100650.78
2023-05-04T13:07:16.593Z,100645.78
2023-05-04T13:11:20.524Z,100665.09
2023-05-04T13:15:23.736Z,100656.09
2023-05-04T13:19:29.000Z,100629.97
2023-05-04T13:23:31.946Z,100619.13
2023-05-04T13:27:34.844Z,100603.00
2023-05-04T13:31:38.195Z,100597.88
2023-05-04T13:35:48.739Z,100599.72
2023-05-04T13:39:51.676Z,100597.28
2023-05-04T13:43:56.092Z,100584.81
2023-05-04T13:47:59.252Z,100591.31
2023-05-04T13:52:03.855Z,100583.53
2023-05-04T13:56:06.930Z,100567.94
2023-05-04T14:00:10.805Z,100553.88
2023-05-04T14:04:14.445Z,100529.75
2023-05-04T14:08:18.855Z,100524.47
2023-05-04T14:12:22.477Z,100528.13
2023-05-04T14:16:25.666Z,100525.06
2023-05-04T14:20:29.066Z,100510.72
2023-05-04T14:24:34.450Z,100503.38
2023-05-04T14:28:37.302Z,100495.06
2023-05-04T14:32:41.003Z,100483.09
2023-05-04T14:36:43.858Z,100480.94
2023-05-04T14:40:49.651Z,100484.03
2023-05-04T14:44:53.109Z,100479.75
2023-05-04T14:48:56.141Z,100462.38
2023-05-04T14:52:59.139Z,100467.09
2023-05-04T14:57:03.761Z,100464.81
2023-05-04T15:01:06.977Z,100455.06
2023-05-04T15:05:12.519Z,100447.22
2023-05-04T15:09:15.414Z,100466.38
2023-05-04T15:13:20.096Z,100466.50
2023-05-04T15:17:22.923Z,100461.91
2023-05-04T15:21:26.189Z,100457.34
2023-05-04T15:25:29.112Z,100461.59
2023-05-04T15:29:33.373Z,100457.88
2023-05-04T15:33:36.218Z,100455.28
2023-05-04T15:37:39.081Z,100448.94
2023-05-04T15:41:42.703Z,100462.16
2023-05-04T15:45:46.909Z,100444.94
2023-05-04T15:49:49.901Z,100438.81
2023-05-04T15:53:52.793Z,100433.28
2023-05-04T15:57:58.415Z,100444.84
2023-05-04T16:02:05.858Z,100426.00
2023-05-04T16:06:09.754Z,100416.75
2023-05-04T16:10:13.184Z,100420.81
2023-05-04T16:14:16.260Z,100411.19
2023-05-04T16:18:20.960Z,100405.78
2023-05-04T16:22:23.926Z,100407.69
2023-05-04T16:26:26.859Z,100404.38
2023-05-04T16:30:32.945Z,100401.13
2023-05-04T16:34:37.229Z,100406.13
2023-05-04T16:38:40.095Z,100398.44
2023-05-04T16:42:43.213Z,100402.47
2023-05-04T16:46:46.418Z,100400.91
2023-05-04T16:50:50.743Z,100404.63
2023-05-04T16:54:53.645Z,100389.09
2023-05-04T16:58:56.551Z,100391.97
2023-05-04T17:02:59.465Z,100393.44
2023-05-04T17:07:03.877Z,100389.91
2023-05-04T17:11:06.801Z,100390.66
2023-05-04T17:15:11.066Z,100384.63
2023-05-04T17:19:14.339Z,100387.94
2023-05-04T17:23:18.624Z,100393.66
2023-05-04T17:27:21.664Z,100380.28
2023-05-04T17:31:24.674Z,100385.41
2023-05-04T17:35:27.697Z,100390.66
2023-05-04T17:39:32.305Z,100389.06
2023-05-04T17:43:35.242Z,100382.41
2023-05-04T17:47:38.229Z,100381.59
2023-05-04T17:51:41.541Z,100376.22
2023-05-04T17:55:46.014Z,100371.09
2023-05-04T17:59:49.465Z,100374.47
2023-05-04T18:03:52.477Z,100374.16
2023-05-04T18:07:55.437Z,100366.88
2023-05-04T18:11:59.870Z,100368.66
2023-05-04T18:16:02.918Z,100370.41
2023-05-04T18:20:06.961Z,100359.94
2023-05-04T18:24:10.360Z,100374.34
2023-05-04T18:28:23.590Z,100377.22
2023-05-04T18:32:26.498Z,100373.75
2023-05-04T18:36:29.590Z,100379.13
2023-05-04T18:40:32.633Z,100385.88
2023-05-04T18:44:38.180Z,100378.13
2023-05-04T18:48:41.164Z,100382.91
2023-05-04T18:52:44.044Z,100387.13
2023-05-04T18:56:46.884Z,100387.69
2023-05-04T19:00:52.542Z,100399.38
2023-05-04T19:04:55.653Z,100392.13
2023-05-04T19:08:58.807Z,100394.91
2023-05-04T19:13:03.368Z,100401.00
2023-05-04T19:17:07.980Z,100400.72
2023-05-04T19:21:10.995Z,100398.75
2023-05-04T19:25:27.088Z,100402.38
2023-05-04T19:29:36.485Z,100399.84
2023-05-04T19:33:48.545Z,100403.75
2023-05-04T19:37:52.006Z,100404.84
2023-05-04T19:41:54.910Z,100401.16
2023-05-04T19:45:57.916Z,100406.66
2023-05-04T19:50:02.129Z,100406.28
2023-05-04T19:54:05.336Z,100404.34
2023-05-04T19:58:10.706Z,100404.84
2023-05-04T20:02:14.153Z,100409.84
2023-05-04T20:06:18.459Z,100402.34
2023-05-04T20:10:21.793Z,100401.16
2023-05-04T20:14:24.681Z,100407.25
2023-05-04T20:18:27.620Z,100403.06
2023-05-04T20:22:32.436Z,100408.56
2023-05-04T20:26:35.726Z,100402.28
2023-05-04T20:30:38.583Z,100407.03
2023-05-04T20:34:43.103Z,100405.75
2023-05-04T20:38:47.342Z,100394.06
2023-05-04T20:42:50.251Z,100391.63
2023-05-04T20:46:53.644Z,100391.22
2023-05-04T20:51:06.548Z,100392.78
2023-05-04T20:55:18.237Z,100378.84
2023-05-04T20:59:21.203Z,100381.56
2023-05-04T21:03:24.278Z,100378.22
2023-05-04T21:07:27.706Z,100372.00
2023-05-04T21:11:32.291Z,100380.84
2023-05-04T21:15:35.217Z,100368.84
2023-05-04T21:19:38.390Z,100373.47
2023-05-04T21:23:41.373Z,100364.66
2023-05-04T21:27:45.624Z,100374.06
2023-05-04T21:31:48.613Z,100377.91
2023-05-04T21:35:51.765Z,100363.50
2023-05-04T21:39:55.780Z,100355.34
2023-05-04T21:44:00.337Z,100361.13
2023-05-04T21:48:03.896Z,100355.00
2023-05-04T21:52:06.796Z,100349.94
2023-05-04T21:56:10.182Z,100350.63
2023-05-04T22:00:18.206Z,100349.59
2023-05-04T22:04:21.685Z,100358.47
2023-05-04T22:08:24.672Z,100356.50
2023-05-04T22:12:27.557Z,100359.34
2023-05-04T22:16:31.849Z,100365.56
2023-05-04T22:20:34.833Z,100356.63
2023-05-04T22:24:37.725Z,100364.03
2023-05-04T22:28:40.650Z,100366.47
2023-05-04T22:32:44.933Z,100352.97
2023-05-04T22:36:48.747Z,100343.84
2023-05-04T22:40:51.704Z,100357.09
2023-05-04T22:44:54.674Z,100351.25
2023-05-04T22:48:59.027Z,100365.28
2023-05-04T22:53:02.057Z,100372.63
2023-05-04T22:57:05.067Z,100369.78
2023-05-04T23:01:10.232Z,100376.03
2023-05-04T23:05:14.759Z,100370.34
2023-05-04T23:09:17.907Z,100379.53
2023-05-04T23:13:20.882Z,100387.50
2023-05-04T23:17:23.784Z,100386.34
2023-05-04T23:21:28.397Z,100388.59
2023-05-04T23:25:31.716Z,100390.50
2023-05-04T23:29:34.618Z,100391.50
2023-05-04T23:33:37.484Z,100396.66
2023-05-04T23:37:41.754Z,100396.66
2023-05-04T23:41:44.997Z,100399.72
2023-05-04T23:45:47.947Z,100400.34
2023-05-04T23:49:51.166Z,100400.94
2023-05-04T23:53:55.800Z,100392.63
2023-05-04T23:57:58.706Z,100395.03
